Terminal Aerodrome Forecast
Issued by NWS Paducah, KY

Home | Current Version | Previous Version | Text Only | Print | Product List | Glossary On
Versions: 1 2 3 4 5 6 7 8 9 10 11 12 13
560
FTUS43 KPAH 242320
TAFEVV
TAF
KEVV 242320Z 2500/2524 VRB02KT P6SM SKC
     FM250700 VRB01KT P6SM FEW250
     FM252100 21005KT P6SM FEW050 SCT250=

USA.gov is the U.S. government's official web portal to all federal, state and local government web resources and services.